createdAt,value
2019-04-28T00:00:51.049Z,100.00
2019-04-28T00:03:18.713Z,100.00
2019-04-28T00:05:46.313Z,100.00
2019-04-28T00:08:13.478Z,100.00
2019-04-28T00:10:41.847Z,100.00
2019-04-28T00:13:08.829Z,100.00
2019-04-28T00:15:36.520Z,100.00
2019-04-28T00:18:04.281Z,100.00
2019-04-28T00:20:50.972Z,100.00
2019-04-28T00:23:22.401Z,100.00
2019-04-28T00:26:01.513Z,100.00
2019-04-28T00:28:28.465Z,100.00
2019-04-28T00:30:55.172Z,100.00
2019-04-28T00:33:22.934Z,100.00
2019-04-28T00:35:51.483Z,100.00
2019-04-28T00:38:18.392Z,100.00
2019-04-28T00:40:45.220Z,100.00
2019-04-28T00:43:12.238Z,100.00
2019-04-28T00:45:39.186Z,100.00
2019-04-28T00:48:05.917Z,100.00
2019-04-28T00:50:32.931Z,100.00
2019-04-28T00:53:01.764Z,100.00
2019-04-28T00:55:29.056Z,100.00
2019-04-28T00:58:01.944Z,100.00
2019-04-28T01:00:31.436Z,100.00
2019-04-28T01:02:59.346Z,100.00
2019-04-28T01:05:27.313Z,100.00
2019-04-28T01:07:55.134Z,100.00
2019-04-28T01:10:23.816Z,100.00
2019-04-28T01:12:51.981Z,100.00
2019-04-28T01:15:20.935Z,100.00
2019-04-28T01:17:56.390Z,100.00
2019-04-28T01:20:24.933Z,100.00
2019-04-28T01:22:52.664Z,100.00
2019-04-28T01:25:20.784Z,100.00
2019-04-28T01:27:50.655Z,100.00
2019-04-28T01:30:20.325Z,100.00
2019-04-28T01:33:07.373Z,100.00
2019-04-28T01:35:35.107Z,100.00
2019-04-28T01:38:02.908Z,100.00
2019-04-28T01:40:30.563Z,100.00
2019-04-28T01:42:59.777Z,100.00
2019-04-28T01:45:27.678Z,100.00
2019-04-28T01:47:55.076Z,100.00
2019-04-28T01:50:22.827Z,100.00
2019-04-28T01:52:51.555Z,100.00
2019-04-28T01:55:20.003Z,100.00
2019-04-28T01:57:47.448Z,100.00
2019-04-28T02:00:23.020Z,100.00
2019-04-28T02:02:45.351Z,100.00
2019-04-28T02:05:13.191Z,100.00
2019-04-28T02:07:40.846Z,100.00
2019-04-28T02:10:10.253Z,100.00
2019-04-28T02:12:37.537Z,100.00
2019-04-28T02:15:06.317Z,100.00
2019-04-28T02:17:33.757Z,100.00
2019-04-28T02:20:01.628Z,100.00
2019-04-28T02:22:43.240Z,100.00
2019-04-28T02:25:10.879Z,100.00
2019-04-28T02:27:40.065Z,100.00
2019-04-28T02:30:11.435Z,100.00
2019-04-28T02:32:40.704Z,100.00
2019-04-28T02:35:10.500Z,100.00
2019-04-28T02:37:36.782Z,100.00
2019-04-28T02:40:05.652Z,100.00
2019-04-28T02:42:33.984Z,100.00
2019-04-28T02:45:01.599Z,100.00
2019-04-28T02:47:33.686Z,100.00
2019-04-28T02:50:03.060Z,100.00
2019-04-28T02:52:51.547Z,100.00
2019-04-28T02:55:18.044Z,100.00
2019-04-28T02:57:45.832Z,100.00
2019-04-28T03:00:12.852Z,100.00
2019-04-28T03:02:41.462Z,100.00
2019-04-28T03:05:11.556Z,100.00
2019-04-28T03:07:40.722Z,100.00
2019-04-28T03:10:07.779Z,100.00
2019-04-28T03:12:35.748Z,100.00
2019-04-28T03:15:04.892Z,100.00
2019-04-28T03:17:32.513Z,100.00
2019-04-28T03:20:01.188Z,100.00
2019-04-28T03:22:32.969Z,100.00
2019-04-28T03:25:01.014Z,100.00
2019-04-28T03:27:40.508Z,100.00
2019-04-28T03:30:26.378Z,100.00
2019-04-28T03:33:00.164Z,100.00
2019-04-28T03:35:24.124Z,100.00
2019-04-28T03:37:51.363Z,100.00
2019-04-28T03:40:21.144Z,100.00
2019-04-28T03:42:47.805Z,100.00
2019-04-28T03:45:16.633Z,100.00
2019-04-28T03:47:43.767Z,100.00
2019-04-28T03:50:11.424Z,100.00
2019-04-28T03:52:41.473Z,100.00
2019-04-28T03:55:11.109Z,100.00
2019-04-28T03:57:41.034Z,100.00
2019-04-28T04:00:10.923Z,100.00
2019-04-28T04:02:40.884Z,100.00
2019-04-28T04:05:06.864Z,100.00
2019-04-28T04:07:33.797Z,100.00
2019-04-28T04:10:03.074Z,100.00
2019-04-28T04:12:40.998Z,100.00
2019-04-28T04:15:11.169Z,100.00
2019-04-28T04:17:41.346Z,100.00
2019-04-28T04:20:11.048Z,100.00
2019-04-28T04:22:38.069Z,100.00
2019-04-28T04:25:08.838Z,100.00
2019-04-28T04:27:35.138Z,100.00
2019-04-28T04:30:02.951Z,100.00
2019-04-28T04:32:33.897Z,100.00
2019-04-28T04:35:00.864Z,100.00
2019-04-28T04:37:30.600Z,100.00
2019-04-28T04:39:57.547Z,100.00
2019-04-28T04:42:25.183Z,100.00
2019-04-28T04:44:52.735Z,100.00
2019-04-28T04:47:21.171Z,100.00
2019-04-28T04:49:50.444Z,100.00
2019-04-28T04:52:20.124Z,100.00
2019-04-28T04:54:46.998Z,100.00
2019-04-28T04:57:14.831Z,100.00
2019-04-28T04:59:42.473Z,100.00
2019-04-28T05:02:29.607Z,100.00
2019-04-28T05:04:54.442Z,100.00
2019-04-28T05:07:21.860Z,100.00
2019-04-28T05:09:49.590Z,100.00
2019-04-28T05:12:17.502Z,100.00
2019-04-28T05:14:45.925Z,100.00
2019-04-28T05:17:13.604Z,100.00
2019-04-28T05:19:40.331Z,100.00
2019-04-28T05:22:10.071Z,100.00
2019-04-28T05:24:46.302Z,100.00
2019-04-28T05:27:11.001Z,100.00
2019-04-28T05:29:39.838Z,100.00
2019-04-28T05:32:06.860Z,100.00
2019-04-28T05:34:33.895Z,100.00
2019-04-28T05:37:01.573Z,100.00
2019-04-28T05:39:29.804Z,100.00
2019-04-28T05:41:56.881Z,100.00
2019-04-28T05:44:23.824Z,100.00
2019-04-28T05:46:51.410Z,100.00
2019-04-28T05:49:22.580Z,100.00
2019-04-28T05:52:00.730Z,100.00
2019-04-28T05:54:44.301Z,100.00
2019-04-28T05:57:12.943Z,100.00
2019-04-28T05:59:42.038Z,100.00
2019-04-28T06:02:12.286Z,100.00
2019-04-28T06:04:40.542Z,100.00
2019-04-28T06:07:10.303Z,100.00
2019-04-28T06:09:42.045Z,100.00
2019-04-28T06:12:14.102Z,100.00
2019-04-28T06:14:40.885Z,100.00
2019-04-28T06:17:07.999Z,100.00
2019-04-28T06:19:35.233Z,100.00
2019-04-28T06:22:02.705Z,100.00
2019-04-28T06:24:29.633Z,100.00
2019-04-28T06:26:56.448Z,100.00
2019-04-28T06:29:24.188Z,100.00
2019-04-28T06:31:51.456Z,100.00
2019-04-28T06:34:18.722Z,100.00
2019-04-28T06:36:45.994Z,100.00
2019-04-28T06:39:13.212Z,100.00
2019-04-28T06:41:40.571Z,100.00
2019-04-28T06:44:07.545Z,100.00
2019-04-28T06:46:34.900Z,100.00
2019-04-28T06:49:01.965Z,100.00
2019-04-28T06:51:30.007Z,100.00
2019-04-28T06:53:57.575Z,100.00
2019-04-28T06:56:25.071Z,100.00
2019-04-28T06:58:58.761Z,100.00
2019-04-28T07:01:20.736Z,100.00
2019-04-28T07:03:48.097Z,100.00
2019-04-28T07:06:14.970Z,100.00
2019-04-28T07:08:42.649Z,100.00
2019-04-28T07:11:09.681Z,100.00
2019-04-28T07:13:36.834Z,100.00
2019-04-28T07:16:03.760Z,100.00
2019-04-28T07:18:31.806Z,100.00
2019-04-28T07:21:00.345Z,100.00
2019-04-28T07:23:28.134Z,100.00
2019-04-28T07:25:55.306Z,100.00
2019-04-28T07:28:22.203Z,100.00
2019-04-28T07:30:49.244Z,100.00
2019-04-28T07:33:16.193Z,100.00
2019-04-28T07:35:43.817Z,100.00
2019-04-28T07:38:10.810Z,100.00
2019-04-28T07:40:37.767Z,100.00
2019-04-28T07:43:04.813Z,100.00
2019-04-28T07:45:31.590Z,100.00
2019-04-28T07:47:58.828Z,100.00
2019-04-28T07:50:25.712Z,100.00
2019-04-28T07:52:54.569Z,100.00
2019-04-28T07:55:23.927Z,100.00
2019-04-28T07:57:51.373Z,100.00
2019-04-28T08:00:26.246Z,100.00
2019-04-28T08:02:53.682Z,100.00
2019-04-28T08:05:21.181Z,100.00
2019-04-28T08:07:49.561Z,100.00
2019-04-28T08:10:18.883Z,100.00
2019-04-28T08:12:51.478Z,100.00
2019-04-28T08:15:19.849Z,100.00
2019-04-28T08:17:52.058Z,100.00
2019-04-28T08:20:25.779Z,100.00
2019-04-28T08:22:55.095Z,100.00
2019-04-28T08:25:23.140Z,100.00
2019-04-28T08:27:51.836Z,100.00
2019-04-28T08:30:19.808Z,100.00
2019-04-28T08:32:51.317Z,100.00
2019-04-28T08:35:23.581Z,100.00
2019-04-28T08:37:50.380Z,100.00
2019-04-28T08:40:17.248Z,100.00
2019-04-28T08:42:44.386Z,100.00
2019-04-28T08:45:11.445Z,100.00
2019-04-28T08:47:38.293Z,100.00
2019-04-28T08:50:05.859Z,100.00
2019-04-28T08:52:32.984Z,100.00
2019-04-28T08:54:59.780Z,100.00
2019-04-28T08:57:26.592Z,98.87
2019-04-28T08:59:53.807Z,94.78
2019-04-28T09:02:20.637Z,90.87
2019-04-28T09:04:47.699Z,86.47
2019-04-28T09:07:14.870Z,90.47
2019-04-28T09:09:41.628Z,91.34
2019-04-28T09:12:08.340Z,89.27
2019-04-28T09:14:36.291Z,90.61
2019-04-28T09:17:03.146Z,91.62
2019-04-28T09:19:30.097Z,94.34
2019-04-28T09:21:57.462Z,92.13
2019-04-28T09:24:24.330Z,93.11
2019-04-28T09:26:51.330Z,89.01
2019-04-28T09:29:18.064Z,89.37
2019-04-28T09:31:45.177Z,88.94
2019-04-28T09:34:12.119Z,82.54
2019-04-28T09:36:38.892Z,89.87
2019-04-28T09:39:06.820Z,92.23
2019-04-28T09:41:35.012Z,81.16
2019-04-28T09:44:03.653Z,81.53
2019-04-28T09:46:34.827Z,79.13
2019-04-28T09:49:02.005Z,79.34
2019-04-28T09:51:28.754Z,78.43
2019-04-28T09:53:56.125Z,79.73
2019-04-28T09:56:23.537Z,78.72
2019-04-28T09:58:50.352Z,80.52
2019-04-28T10:01:17.430Z,81.75
2019-04-28T10:03:44.571Z,80.16
2019-04-28T10:06:11.293Z,81.17
2019-04-28T10:08:38.264Z,84.80
2019-04-28T10:11:05.065Z,82.19
2019-04-28T10:13:31.825Z,87.73
2019-04-28T10:15:58.603Z,93.97
2019-04-28T10:18:25.731Z,88.03
2019-04-28T10:20:52.503Z,85.34
2019-04-28T10:23:19.358Z,83.97
2019-04-28T10:25:46.385Z,92.08
2019-04-28T10:28:13.247Z,82.56
2019-04-28T10:30:39.963Z,79.85
2019-04-28T10:33:07.294Z,78.89
2019-04-28T10:35:34.128Z,81.79
2019-04-28T10:38:01.180Z,80.58
2019-04-28T10:40:34.397Z,82.78
2019-04-28T10:43:01.209Z,83.77
2019-04-28T10:45:29.803Z,79.41
2019-04-28T10:47:56.832Z,80.42
2019-04-28T10:50:23.567Z,81.44
2019-04-28T10:52:50.312Z,81.26
2019-04-28T10:55:17.286Z,81.11
2019-04-28T10:57:44.200Z,82.43
2019-04-28T11:00:12.314Z,82.09
2019-04-28T11:02:40.822Z,83.08
2019-04-28T11:05:09.403Z,83.96
2019-04-28T11:07:36.693Z,83.02
2019-04-28T11:10:07.847Z,82.14
2019-04-28T11:12:34.772Z,81.53
2019-04-28T11:15:02.614Z,78.97
2019-04-28T11:17:29.590Z,78.32
2019-04-28T11:19:56.906Z,77.96
2019-04-28T11:22:24.121Z,77.49
2019-04-28T11:24:50.987Z,80.56
2019-04-28T11:27:18.124Z,80.52
2019-04-28T11:29:45.422Z,76.33
2019-04-28T11:32:12.729Z,81.54
2019-04-28T11:34:59.555Z,93.04
2019-04-28T11:37:26.790Z,85.80
2019-04-28T11:39:53.773Z,82.26
2019-04-28T11:42:20.774Z,76.36
2019-04-28T11:44:47.990Z,74.59
2019-04-28T11:47:18.455Z,72.15
2019-04-28T11:49:45.121Z,71.30
2019-04-28T11:52:12.358Z,74.64
2019-04-28T11:54:39.176Z,72.85
2019-04-28T11:57:06.188Z,70.37
2019-04-28T11:59:33.298Z,69.88
2019-04-28T12:02:00.423Z,71.97
2019-04-28T12:04:27.372Z,71.03
2019-04-28T12:06:54.634Z,71.12
2019-04-28T12:09:26.127Z,66.40
2019-04-28T12:11:54.855Z,63.90
2019-04-28T12:14:23.533Z,69.33
2019-04-28T12:16:52.130Z,70.53
2019-04-28T12:19:37.062Z,69.23
2019-04-28T12:22:04.170Z,70.00
2019-04-28T12:24:31.723Z,71.81
2019-04-28T12:26:58.439Z,71.48
2019-04-28T12:29:25.163Z,72.88
2019-04-28T12:31:52.468Z,73.80
2019-04-28T12:34:19.691Z,73.91
2019-04-28T12:36:47.143Z,73.30
2019-04-28T12:39:14.252Z,72.95
2019-04-28T12:41:41.112Z,73.85
2019-04-28T12:44:08.008Z,72.83
2019-04-28T12:46:34.726Z,72.53
2019-04-28T12:49:19.838Z,73.25
2019-04-28T12:51:46.765Z,71.28
2019-04-28T12:54:15.364Z,71.99
2019-04-28T12:56:42.696Z,71.38
2019-04-28T12:59:13.821Z,70.13
2019-04-28T13:01:42.489Z,71.39
2019-04-28T13:04:17.160Z,72.26
2019-04-28T13:06:45.689Z,72.25
2019-04-28T13:09:12.486Z,72.96
2019-04-28T13:11:39.672Z,73.42
2019-04-28T13:14:07.442Z,72.86
2019-04-28T13:16:34.458Z,73.00
2019-04-28T13:19:01.696Z,73.58
2019-04-28T13:21:28.406Z,73.24
2019-04-28T13:23:55.171Z,74.01
2019-04-28T13:26:22.220Z,73.75
2019-04-28T13:28:49.461Z,73.18
2019-04-28T13:31:16.882Z,72.75
2019-04-28T13:33:55.988Z,73.05
2019-04-28T13:36:14.892Z,73.70
2019-04-28T13:38:41.216Z,73.47
2019-04-28T13:41:08.147Z,72.25
2019-04-28T13:43:35.229Z,72.54
2019-04-28T13:46:02.243Z,72.14
2019-04-28T13:48:28.984Z,71.18
2019-04-28T13:50:56.170Z,71.06
2019-04-28T13:53:23.144Z,70.15
2019-04-28T13:55:51.767Z,70.58
2019-04-28T13:58:20.620Z,69.44
2019-04-28T14:01:04.998Z,69.10
2019-04-28T14:03:39.784Z,68.62
2019-04-28T14:06:08.504Z,66.78
2019-04-28T14:08:35.249Z,66.66
2019-04-28T14:11:02.542Z,65.76
2019-04-28T14:13:30.523Z,64.25
2019-04-28T14:15:58.169Z,62.43
2019-04-28T14:18:25.111Z,63.75
2019-04-28T14:20:52.447Z,64.25
2019-04-28T14:23:19.345Z,63.49
2019-04-28T14:25:46.273Z,60.92
2019-04-28T14:28:13.412Z,60.74
2019-04-28T14:30:40.017Z,62.42
2019-04-28T14:33:06.985Z,64.20
2019-04-28T14:35:33.860Z,63.14
2019-04-28T14:38:01.014Z,62.21
2019-04-28T14:40:27.742Z,61.78
2019-04-28T14:42:54.590Z,61.09
2019-04-28T14:45:21.861Z,62.26
2019-04-28T14:47:48.787Z,62.15
2019-04-28T14:50:16.550Z,62.75
2019-04-28T14:52:43.400Z,62.92
2019-04-28T14:55:10.632Z,61.51
2019-04-28T14:57:37.381Z,61.77
2019-04-28T15:00:07.745Z,61.71
2019-04-28T15:02:48.345Z,61.98
2019-04-28T15:05:23.394Z,62.37
2019-04-28T15:07:57.826Z,62.98
2019-04-28T15:10:35.523Z,58.99
2019-04-28T15:13:03.328Z,60.24
2019-04-28T15:15:30.567Z,59.28
2019-04-28T15:17:58.276Z,60.57
2019-04-28T15:20:25.211Z,58.64
2019-04-28T15:22:52.333Z,60.05
2019-04-28T15:25:19.177Z,59.99
2019-04-28T15:27:46.392Z,59.71
2019-04-28T15:30:13.218Z,59.78
2019-04-28T15:32:40.160Z,59.63
2019-04-28T15:35:07.305Z,60.88
2019-04-28T15:37:34.048Z,61.12
2019-04-28T15:40:00.788Z,62.24
2019-04-28T15:42:27.898Z,61.95
2019-04-28T15:44:54.726Z,61.99
2019-04-28T15:47:21.488Z,62.38
2019-04-28T15:49:48.196Z,63.01
2019-04-28T15:52:15.446Z,63.52
2019-04-28T15:54:42.403Z,64.60
2019-04-28T15:57:09.249Z,64.67
2019-04-28T15:59:35.981Z,64.99
2019-04-28T16:02:03.165Z,64.97
2019-04-28T16:04:29.995Z,65.80
2019-04-28T16:06:56.905Z,66.83
2019-04-28T16:09:23.630Z,67.65
2019-04-28T16:11:51.033Z,68.52
2019-04-28T16:14:17.786Z,68.74
2019-04-28T16:16:44.533Z,69.00
2019-04-28T16:19:11.773Z,69.06
2019-04-28T16:21:39.354Z,69.01
2019-04-28T16:24:06.184Z,67.89
2019-04-28T16:26:33.229Z,67.44
2019-04-28T16:28:59.909Z,67.81
2019-04-28T16:31:27.218Z,68.24
2019-04-28T16:33:54.995Z,68.60
2019-04-28T16:36:22.699Z,68.54
2019-04-28T16:38:49.444Z,68.04
2019-04-28T16:41:18.729Z,67.55
2019-04-28T16:43:48.575Z,67.01
2019-04-28T16:46:15.446Z,66.41
2019-04-28T16:48:42.430Z,65.43
2019-04-28T16:51:09.602Z,65.46
2019-04-28T16:53:36.359Z,65.27
2019-04-28T16:56:21.541Z,64.86
2019-04-28T16:58:50.044Z,63.52
2019-04-28T17:01:24.838Z,63.01
2019-04-28T17:03:52.519Z,63.33
2019-04-28T17:06:19.165Z,63.14
2019-04-28T17:08:46.185Z,63.13
2019-04-28T17:11:12.937Z,64.15
2019-04-28T17:13:40.495Z,64.21
2019-04-28T17:16:07.257Z,63.51
2019-04-28T17:18:33.996Z,63.38
2019-04-28T17:21:01.060Z,62.32
2019-04-28T17:23:27.876Z,62.75
2019-04-28T17:25:54.841Z,62.65
2019-04-28T17:28:21.897Z,62.34
2019-04-28T17:30:48.738Z,62.55
2019-04-28T17:33:15.560Z,63.42
2019-04-28T17:35:42.832Z,65.20
2019-04-28T17:38:10.492Z,64.12
2019-04-28T17:40:37.412Z,63.87
2019-04-28T17:43:04.125Z,64.10
2019-04-28T17:45:31.182Z,64.03
2019-04-28T17:47:59.645Z,64.98
2019-04-28T17:50:27.894Z,64.72
2019-04-28T17:52:55.047Z,65.29
2019-04-28T17:55:22.603Z,65.81
2019-04-28T17:57:49.455Z,67.44
2019-04-28T18:00:18.943Z,68.62
2019-04-28T18:03:03.903Z,69.37
2019-04-28T18:05:32.780Z,70.31
2019-04-28T18:08:01.319Z,70.77
2019-04-28T18:10:29.402Z,71.30
2019-04-28T18:13:00.725Z,71.88
2019-04-28T18:15:44.678Z,72.57
2019-04-28T18:18:22.601Z,73.01
2019-04-28T18:20:50.180Z,73.14
2019-04-28T18:23:16.892Z,73.70
2019-04-28T18:25:43.719Z,73.99
2019-04-28T18:28:10.971Z,74.68
2019-04-28T18:30:40.190Z,73.68
2019-04-28T18:33:25.885Z,74.02
2019-04-28T18:35:54.405Z,74.24
2019-04-28T18:38:34.434Z,74.68
2019-04-28T18:41:06.396Z,75.02
2019-04-28T18:43:47.173Z,75.53
2019-04-28T18:46:16.594Z,75.70
2019-04-28T18:48:43.754Z,75.98
2019-04-28T18:51:10.510Z,76.69
2019-04-28T18:53:38.399Z,77.37
2019-04-28T18:56:07.716Z,77.31
2019-04-28T18:58:36.614Z,77.28
2019-04-28T19:01:08.842Z,77.47
2019-04-28T19:03:35.702Z,77.62
2019-04-28T19:06:03.035Z,77.92
2019-04-28T19:08:31.979Z,77.77
2019-04-28T19:11:01.282Z,78.01
2019-04-28T19:13:30.957Z,78.07
2019-04-28T19:15:59.668Z,78.43
2019-04-28T19:18:34.201Z,78.60
2019-04-28T19:21:01.427Z,79.11
2019-04-28T19:23:28.850Z,79.55
2019-04-28T19:25:56.842Z,79.93
2019-04-28T19:28:23.893Z,80.21
2019-04-28T19:30:51.333Z,80.52
2019-04-28T19:33:18.798Z,81.07
2019-04-28T19:35:45.555Z,81.56
2019-04-28T19:38:12.777Z,81.84
2019-04-28T19:40:39.797Z,82.59
2019-04-28T19:43:06.856Z,83.17
2019-04-28T19:45:35.890Z,83.63
2019-04-28T19:48:02.848Z,84.13
2019-04-28T19:50:29.636Z,84.57
2019-04-28T19:52:56.852Z,84.71
2019-04-28T19:55:25.443Z,84.97
2019-04-28T19:57:53.902Z,85.29
2019-04-28T20:00:26.056Z,85.56
2019-04-28T20:02:53.203Z,85.83
2019-04-28T20:05:20.849Z,86.18
2019-04-28T20:07:48.327Z,87.02
2019-04-28T20:10:15.156Z,87.38
2019-04-28T20:12:42.359Z,87.62
2019-04-28T20:15:09.504Z,87.75
2019-04-28T20:17:36.587Z,87.83
2019-04-28T20:20:05.325Z,88.01
2019-04-28T20:22:32.740Z,88.61
2019-04-28T20:24:59.437Z,88.94
2019-04-28T20:27:26.356Z,89.22
2019-04-28T20:29:53.433Z,89.65
2019-04-28T20:32:20.477Z,90.86
2019-04-28T20:34:47.225Z,90.73
2019-04-28T20:37:15.645Z,91.07
2019-04-28T20:39:44.412Z,90.75
2019-04-28T20:42:15.825Z,91.33
2019-04-28T20:44:43.662Z,91.54
2019-04-28T20:47:11.592Z,91.79
2019-04-28T20:49:38.311Z,92.03
2019-04-28T20:52:05.063Z,92.71
2019-04-28T20:54:31.776Z,93.17
2019-04-28T20:56:59.767Z,93.87
2019-04-28T20:59:26.596Z,94.07
2019-04-28T21:01:53.230Z,93.86
2019-04-28T21:04:20.049Z,93.79
2019-04-28T21:06:47.187Z,94.14
2019-04-28T21:09:14.885Z,94.58
2019-04-28T21:11:42.510Z,94.60
2019-04-28T21:14:09.437Z,94.90
2019-04-28T21:16:37.045Z,95.22
2019-04-28T21:19:04.100Z,95.38
2019-04-28T21:21:30.723Z,95.58
2019-04-28T21:23:57.919Z,95.70
2019-04-28T21:26:24.786Z,96.00
2019-04-28T21:28:51.619Z,96.42
2019-04-28T21:31:18.253Z,96.49
2019-04-28T21:33:45.351Z,96.70
2019-04-28T21:36:12.232Z,96.89
2019-04-28T21:38:38.958Z,97.77
2019-04-28T21:41:06.216Z,97.60
2019-04-28T21:43:34.859Z,97.80
2019-04-28T21:46:10.133Z,98.79
2019-04-28T21:48:39.488Z,99.92
2019-04-28T21:51:06.816Z,100.00
2019-04-28T21:53:33.743Z,100.00
2019-04-28T21:56:00.674Z,100.00
2019-04-28T21:58:33.555Z,99.92
2019-04-28T22:00:56.725Z,100.00
2019-04-28T22:03:24.170Z,100.00
2019-04-28T22:05:51.805Z,100.00
2019-04-28T22:08:18.653Z,100.00
2019-04-28T22:10:46.378Z,100.00
2019-04-28T22:13:14.325Z,100.00
2019-04-28T22:15:41.520Z,100.00
2019-04-28T22:18:08.267Z,100.00
2019-04-28T22:20:35.665Z,100.00
2019-04-28T22:23:17.825Z,100.00
2019-04-28T22:25:34.227Z,100.00
2019-04-28T22:28:01.109Z,100.00
2019-04-28T22:30:29.049Z,100.00
2019-04-28T22:32:55.764Z,100.00
2019-04-28T22:35:22.601Z,100.00
2019-04-28T22:37:49.635Z,100.00
2019-04-28T22:40:16.603Z,100.00
2019-04-28T22:42:44.206Z,100.00
2019-04-28T22:45:11.426Z,100.00
2019-04-28T22:47:39.858Z,100.00
2019-04-28T22:50:26.981Z,100.00
2019-04-28T22:52:54.688Z,100.00
2019-04-28T22:55:23.596Z,100.00
2019-04-28T22:57:52.099Z,100.00
2019-04-28T23:00:40.568Z,100.00
2019-04-28T23:03:09.173Z,100.00
2019-04-28T23:05:35.929Z,100.00
2019-04-28T23:08:03.294Z,100.00
2019-04-28T23:10:30.031Z,100.00
2019-04-28T23:12:56.891Z,100.00
2019-04-28T23:15:24.033Z,100.00
2019-04-28T23:17:51.521Z,100.00
2019-04-28T23:20:19.054Z,100.00
2019-04-28T23:22:48.261Z,100.00
2019-04-28T23:25:15.995Z,100.00
2019-04-28T23:27:43.964Z,100.00
2019-04-28T23:30:10.901Z,100.00
2019-04-28T23:32:38.065Z,100.00
2019-04-28T23:35:05.833Z,100.00
2019-04-28T23:37:32.542Z,100.00
2019-04-28T23:39:59.966Z,100.00
2019-04-28T23:42:41.246Z,100.00
2019-04-28T23:45:12.080Z,100.00
2019-04-28T23:47:39.397Z,100.00
2019-04-28T23:50:08.129Z,100.00
2019-04-28T23:52:37.093Z,100.00
2019-04-28T23:55:07.430Z,100.00
2019-04-28T23:57:34.191Z,100.00
